Time;durP1;ratioP1;P1;durP2;ratioP2;P2;SDS_P1;SDS_P2;PMS_P1;PMS_P2;Temp;Humidity;BMP_temperature;BMP_pressure;BME280_temperature;BME280_humidity;BME280_pressure;Samples;Min_cycle;Max_cycle;Signal;HPM_P1;HPM_P2
2021/08/23 00:01:14;;;;;;;23.70;13.85;;;17.80;82.90;;;;;;5015148;28;20407;-88
2021/08/23 00:03:41;;;;;;;19.60;12.95;;;17.70;82.90;;;;;;5015048;28;20514;-90
2021/08/23 00:06:08;;;;;;;29.30;17.40;;;17.80;82.90;;;;;;5015390;28;20111;-89
2021/08/23 00:08:35;;;;;;;29.88;17.98;;;17.70;83.00;;;;;;5015824;28;20054;-89
2021/08/23 00:11:02;;;;;;;27.02;17.83;;;17.70;83.00;;;;;;5014834;28;20050;-88
2021/08/23 00:13:29;;;;;;;35.00;22.35;;;17.70;83.00;;;;;;5013466;28;20049;-89
2021/08/23 00:15:56;;;;;;;33.90;20.30;;;17.70;82.90;;;;;;5014945;28;20046;-89
2021/08/23 00:18:23;;;;;;;34.45;20.95;;;17.70;83.00;;;;;;5014984;28;20524;-88
2021/08/23 00:20:55;;;;;;;37.33;22.92;;;17.70;83.00;;;;;;5015063;28;20061;-89
2021/08/23 00:23:25;;;;;;;32.20;22.38;;;17.70;83.00;;;;;;5013810;28;20049;-88
2021/08/23 00:25:52;;;;;;;39.40;24.80;;;17.70;83.00;;;;;;5014674;28;20046;-88
2021/08/23 00:28:20;;;;;;;39.20;23.35;;;17.70;83.00;;;;;;5013076;28;20053;-90
2021/08/23 00:30:47;;;;;;;31.98;21.83;;;17.70;83.00;;;;;;5014720;28;20057;-88
2021/08/23 00:33:14;;;;;;;39.90;29.10;;;17.70;83.00;;;;;;5014592;28;20053;-89
2021/08/23 00:35:41;;;;;;;30.23;22.75;;;17.70;83.00;;;;;;5014778;28;20042;-89
2021/08/23 00:38:08;;;;;;;44.33;29.52;;;17.70;83.00;;;;;;5014528;28;20423;-88
2021/08/23 00:40:36;;;;;;;38.75;27.73;;;17.70;83.10;;;;;;5014307;28;20449;-88
2021/08/23 00:43:04;;;;;;;34.00;25.33;;;17.70;83.00;;;;;;5013970;28;20042;-89
2021/08/23 00:45:31;;;;;;;44.72;28.20;;;17.70;83.00;;;;;;5014491;28;20050;-88
2021/08/23 00:47:59;;;;;;;43.70;29.60;;;17.70;83.10;;;;;;5014293;28;20431;-89
2021/08/23 00:50:26;;;;;;;44.40;29.58;;;17.70;83.10;;;;;;5013646;28;20073;-89
2021/08/23 00:52:53;;;;;;;45.00;28.65;;;17.70;83.10;;;;;;5014120;28;20438;-88
2021/08/23 00:55:20;;;;;;;39.78;26.23;;;17.70;83.10;;;;;;5014144;28;20056;-89
2021/08/23 00:57:47;;;;;;;41.35;27.30;;;17.70;83.10;;;;;;5013663;28;20041;-89
2021/08/23 01:00:14;;;;;;;45.08;26.45;;;17.70;83.10;;;;;;5014063;28;20080;-90
2021/08/23 01:02:57;;;;;;;33.15;23.52;;;17.70;83.10;;;;;;5013146;28;20092;-89
2021/08/23 01:05:30;;;;;;;38.28;25.00;;;17.80;83.10;;;;;;5013444;28;20054;-89
2021/08/23 01:08:08;;;;;;;31.17;22.63;;;17.80;83.10;;;;;;5012866;28;20437;-90
2021/08/23 01:10:42;;;;;;;35.40;23.08;;;17.80;83.00;;;;;;5013608;28;20057;-89
2021/08/23 01:13:09;;;;;;;36.38;21.67;;;17.80;83.10;;;;;;5013472;28;20108;-88
2021/08/23 01:15:40;;;;;;;33.67;20.38;;;17.70;83.10;;;;;;5013978;28;20061;-90
2021/08/23 01:18:07;;;;;;;31.33;20.63;;;17.80;83.10;;;;;;4997414;28;20052;-90
2021/08/23 01:20:36;;;;;;;31.85;21.33;;;17.80;83.00;;;;;;5010318;28;20059;-89
2021/08/23 01:23:04;;;;;;;34.78;21.65;;;17.70;83.00;;;;;;5013530;28;20065;-90
2021/08/23 01:25:33;;;;;;;37.20;23.27;;;17.70;83.00;;;;;;5013304;28;20046;-90
2021/08/23 01:28:25;;;;;;;39.60;22.08;;;17.70;82.90;;;;;;5013758;28;20062;-90
2021/08/23 01:31:06;;;;;;;36.00;22.00;;;17.70;82.90;;;;;;5013640;28;20474;-89
2021/08/23 01:33:33;;;;;;;28.52;22.02;;;17.60;82.90;;;;;;5012425;28;20501;-88
2021/08/23 01:36:01;;;;;;;28.80;20.42;;;17.60;83.00;;;;;;5012726;28;20104;-91
2021/08/23 01:38:28;;;;;;;31.92;22.25;;;17.60;82.90;;;;;;5014070;28;20100;-91
2021/08/23 01:41:00;;;;;;;30.55;21.63;;;17.60;82.90;;;;;;5011863;28;20049;-89
2021/08/23 01:43:27;;;;;;;37.58;21.48;;;17.60;82.90;;;;;;5013331;28;20058;-89
2021/08/23 01:45:54;;;;;;;31.90;22.98;;;17.50;82.90;;;;;;5013283;28;20046;-90
2021/08/23 01:48:22;;;;;;;30.85;22.92;;;17.50;82.80;;;;;;5013028;28;20049;-90
2021/08/23 01:50:49;;;;;;;35.47;23.67;;;17.50;82.80;;;;;;5013138;28;20046;-89
2021/08/23 01:53:16;;;;;;;33.65;23.70;;;17.50;82.90;;;;;;5013801;28;20045;-91
2021/08/23 01:55:44;;;;;;;37.13;22.83;;;17.40;82.80;;;;;;5012913;28;20050;-90
2021/08/23 01:58:11;;;;;;;39.35;26.52;;;17.40;82.90;;;;;;5013432;28;20112;-90
2021/08/23 02:00:38;;;;;;;35.42;24.08;;;17.40;82.90;;;;;;5013468;28;20042;-90
2021/08/23 02:03:05;;;;;;;36.58;26.05;;;17.40;82.90;;;;;;5011907;28;20562;-90
2021/08/23 02:05:32;;;;;;;32.85;23.85;;;17.40;82.90;;;;;;5013962;28;20065;-90
2021/08/23 02:08:00;;;;;;;31.58;23.65;;;17.40;82.90;;;;;;5012192;28;20111;-90
2021/08/23 02:10:26;;;;;;;35.25;23.67;;;17.40;82.90;;;;;;5012538;28;20081;-90
2021/08/23 02:12:53;;;;;;;31.00;22.90;;;17.40;82.90;;;;;;5013181;28;20096;-91
2021/08/23 02:15:20;;;;;;;31.48;21.90;;;17.40;82.90;;;;;;5013275;28;20042;-91
2021/08/23 02:17:47;;;;;;;32.83;20.77;;;17.40;82.90;;;;;;5013097;28;20050;-92
2021/08/23 02:20:15;;;;;;;34.63;20.25;;;17.40;82.90;;;;;;5012410;28;20046;-90
2021/08/23 02:22:41;;;;;;;25.90;19.33;;;17.40;82.90;;;;;;5012928;28;20061;-90
2021/08/23 02:25:09;;;;;;;28.90;20.65;;;17.40;82.90;;;;;;5012376;28;20053;-91
2021/08/23 02:27:36;;;;;;;27.60;17.73;;;17.40;82.90;;;;;;5013021;28;20049;-90
2021/08/23 02:30:04;;;;;;;24.42;14.65;;;17.40;82.90;;;;;;5012893;28;20096;-91
2021/08/23 02:32:33;;;;;;;25.67;17.25;;;17.30;82.90;;;;;;5044801;28;20081;-89
2021/08/23 02:35:00;;;;;;;27.90;18.05;;;17.40;82.90;;;;;;5011607;28;20054;-90
2021/08/23 02:37:27;;;;;;;24.75;15.65;;;17.40;82.90;;;;;;5012406;28;20046;-92
2021/08/23 02:39:54;;;;;;;24.50;15.05;;;17.30;82.90;;;;;;5012343;28;20438;-90
2021/08/23 02:42:21;;;;;;;23.30;15.63;;;17.40;83.00;;;;;;5011662;28;20544;-90
2021/08/23 02:44:48;;;;;;;22.95;13.77;;;17.40;83.00;;;;;;5012805;28;20053;-91
2021/08/23 02:47:15;;;;;;;21.63;14.25;;;17.40;83.00;;;;;;5012882;28;20050;-91
2021/08/23 02:49:42;;;;;;;25.85;14.00;;;17.30;83.00;;;;;;5012439;28;20050;-91
2021/08/23 02:52:09;;;;;;;18.15;13.20;;;17.30;82.90;;;;;;5012896;28;20049;-91
2021/08/23 02:54:36;;;;;;;23.60;14.05;;;17.30;82.90;;;;;;5012273;28;20053;-91
2021/08/23 02:57:03;;;;;;;21.83;13.48;;;17.40;82.90;;;;;;5012984;28;20466;-90
2021/08/23 02:59:30;;;;;;;24.90;13.02;;;17.40;82.90;;;;;;5029710;28;20054;-91
2021/08/23 03:01:56;;;;;;;20.00;13.43;;;17.30;82.90;;;;;;5011810;28;20411;-91
2021/08/23 03:04:23;;;;;;;21.77;13.32;;;17.40;82.90;;;;;;5011340;28;20506;-90
2021/08/23 03:06:50;;;;;;;23.45;12.95;;;17.30;83.00;;;;;;5012605;28;20042;-90
2021/08/23 03:09:17;;;;;;;21.40;11.73;;;17.30;83.00;;;;;;5011396;28;20435;-93
2021/08/23 03:11:44;;;;;;;24.00;12.15;;;17.30;83.00;;;;;;5011618;28;20111;-91
2021/08/23 03:14:11;;;;;;;23.88;11.68;;;17.30;83.10;;;;;;5013046;28;20053;-92
2021/08/23 03:16:38;;;;;;;24.98;12.63;;;17.30;83.10;;;;;;5012642;28;20068;-92
2021/08/23 03:19:05;;;;;;;26.67;11.55;;;17.30;83.10;;;;;;5011558;28;20046;-90
2021/08/23 03:21:32;;;;;;;18.77;11.45;;;17.30;83.10;;;;;;5010917;28;20046;-93
2021/08/23 03:23:59;;;;;;;20.92;11.82;;;17.30;83.10;;;;;;5011365;28;20046;-91
2021/08/23 03:26:25;;;;;;;19.27;11.18;;;17.30;83.10;;;;;;5013046;28;20466;-91
2021/08/23 03:28:52;;;;;;;22.42;11.70;;;17.30;83.10;;;;;;5011258;28;20046;-90
2021/08/23 03:31:19;;;;;;;25.23;11.80;;;17.30;83.10;;;;;;5011460;28;20139;-93
2021/08/23 03:33:46;;;;;;;26.67;12.15;;;17.30;83.10;;;;;;5012500;28;20479;-91
2021/08/23 03:36:13;;;;;;;26.50;11.65;;;17.30;83.00;;;;;;5012138;28;20502;-90
2021/08/23 03:38:42;;;;;;;24.48;11.30;;;17.30;83.00;;;;;;5012271;28;20054;-90
2021/08/23 03:41:12;;;;;;;21.95;11.15;;;17.30;83.00;;;;;;5011448;28;20050;-92
2021/08/23 03:43:39;;;;;;;19.42;11.02;;;17.30;83.00;;;;;;5012173;28;20046;-92
2021/08/23 03:46:06;;;;;;;18.98;9.93;;;17.20;82.90;;;;;;5012254;28;20050;-92
2021/08/23 03:48:33;;;;;;;19.35;10.73;;;17.20;82.90;;;;;;5012160;28;20391;-89
2021/08/23 03:51:00;;;;;;;25.30;11.15;;;17.20;82.90;;;;;;5011057;28;20058;-90
2021/08/23 03:53:27;;;;;;;14.95;10.07;;;17.20;82.90;;;;;;5030038;28;20057;-92
2021/08/23 03:55:54;;;;;;;29.42;10.23;;;17.10;82.80;;;;;;5011001;28;20046;-91
2021/08/23 03:58:21;;;;;;;22.33;10.23;;;17.20;82.80;;;;;;5010941;28;20049;-91
2021/08/23 04:00:47;;;;;;;24.83;10.82;;;17.10;82.80;;;;;;5012053;28;20049;-91
2021/08/23 04:03:14;;;;;;;22.17;10.95;;;17.10;82.80;;;;;;5012235;28;20038;-91
2021/08/23 04:05:42;;;;;;;22.25;10.88;;;17.10;82.90;;;;;;5011994;28;20119;-91
2021/08/23 04:08:09;;;;;;;22.27;10.25;;;17.10;82.90;;;;;;5011527;28;20507;-91
2021/08/23 04:10:36;;;;;;;17.15;10.82;;;17.10;82.90;;;;;;5010858;28;20053;-91
2021/08/23 04:13:03;;;;;;;21.33;11.05;;;17.00;83.00;;;;;;5012665;28;20396;-91
2021/08/23 04:15:30;;;;;;;20.90;10.27;;;17.00;83.00;;;;;;5015488;28;20519;-90
2021/08/23 04:17:59;;;;;;;21.80;9.93;;;17.00;83.00;;;;;;5015488;28;20054;-92
2021/08/23 04:20:25;;;;;;;21.70;10.57;;;17.00;83.10;;;;;;5015468;28;20494;-92
2021/08/23 04:22:52;;;;;;;20.58;11.02;;;17.00;83.10;;;;;;5015112;28;20065;-93
2021/08/23 04:25:19;;;;;;;20.63;9.82;;;17.00;83.20;;;;;;5013988;28;20065;-90
2021/08/23 04:27:46;;;;;;;25.27;11.10;;;17.00;83.20;;;;;;5014857;28;20388;-92
2021/08/23 04:30:13;;;;;;;23.70;11.30;;;17.00;83.20;;;;;;5015124;28;20096;-92
2021/08/23 04:32:40;;;;;;;24.73;10.80;;;17.00;83.20;;;;;;5015137;28;20050;-90
2021/08/23 04:35:07;;;;;;;21.05;10.43;;;17.00;83.20;;;;;;5014819;28;20096;-91
2021/08/23 04:37:34;;;;;;;16.75;9.43;;;17.00;83.30;;;;;;5014759;28;20050;-91
2021/08/23 04:40:01;;;;;;;22.77;11.25;;;17.00;83.30;;;;;;5015081;28;20054;-92
2021/08/23 04:42:28;;;;;;;25.63;11.30;;;17.00;83.30;;;;;;5015035;28;20056;-92
2021/08/23 04:44:55;;;;;;;27.88;11.30;;;17.00;83.30;;;;;;5014972;28;20045;-91
2021/08/23 04:47:22;;;;;;;18.38;10.68;;;17.00;83.30;;;;;;5015153;28;20045;-89
2021/08/23 04:49:49;;;;;;;21.52;10.85;;;17.00;83.30;;;;;;5014146;28;20073;-90
2021/08/23 04:52:16;;;;;;;24.67;11.00;;;17.00;83.30;;;;;;5014628;28;20050;-91
2021/08/23 04:54:43;;;;;;;21.25;10.75;;;17.10;83.40;;;;;;5014375;28;20050;-91
2021/08/23 04:57:10;;;;;;;27.42;11.30;;;17.10;83.40;;;;;;5014563;28;20466;-90
2021/08/23 04:59:37;;;;;;;20.08;10.85;;;17.10;83.40;;;;;;5015176;28;20461;-91
2021/08/23 05:02:03;;;;;;;24.80;11.68;;;17.10;83.40;;;;;;5014570;28;20049;-90
2021/08/23 05:04:30;;;;;;;19.58;11.80;;;17.00;83.50;;;;;;5013911;28;20139;-89
2021/08/23 05:06:57;;;;;;;23.55;12.25;;;17.00;83.50;;;;;;5014229;28;20085;-91
2021/08/23 05:09:24;;;;;;;25.15;12.02;;;17.10;83.60;;;;;;5014510;28;20060;-90
2021/08/23 05:11:51;;;;;;;22.88;12.18;;;17.10;83.60;;;;;;5014283;28;20502;-90
2021/08/23 05:14:18;;;;;;;22.50;12.30;;;17.10;83.60;;;;;;5012693;28;20050;-90
2021/08/23 05:16:45;;;;;;;22.10;10.68;;;17.10;83.70;;;;;;5014258;28;20454;-90
2021/08/23 05:19:11;;;;;;;31.80;13.15;;;17.10;83.70;;;;;;5012199;28;20728;-90
2021/08/23 05:21:38;;;;;;;23.35;12.90;;;17.00;83.70;;;;;;5014185;28;20104;-90
2021/08/23 05:24:05;;;;;;;27.17;14.63;;;17.10;83.70;;;;;;5011606;28;20049;-90
2021/08/23 05:26:32;;;;;;;19.63;12.25;;;17.10;83.70;;;;;;5014250;28;20100;-89
2021/08/23 05:28:59;;;;;;;28.10;12.90;;;17.10;83.70;;;;;;5013794;28;20050;-90
2021/08/23 05:31:26;;;;;;;23.58;13.70;;;17.10;83.70;;;;;;5013755;28;20116;-89
2021/08/23 05:33:53;;;;;;;27.17;12.65;;;17.10;83.80;;;;;;5013205;28;20046;-90
2021/08/23 05:36:20;;;;;;;22.02;13.30;;;17.10;83.80;;;;;;5009704;28;20100;-89
2021/08/23 05:38:46;;;;;;;22.92;12.77;;;17.10;83.80;;;;;;5012790;28;20124;-89
2021/08/23 05:41:13;;;;;;;23.48;11.90;;;17.10;83.90;;;;;;5012744;28;20128;-90
2021/08/23 05:43:40;;;;;;;25.20;13.43;;;17.10;83.90;;;;;;5013619;28;20046;-90
2021/08/23 05:46:09;;;;;;;24.75;13.70;;;17.10;83.90;;;;;;5012302;28;20046;-89
2021/08/23 05:48:36;;;;;;;25.38;13.23;;;17.10;83.90;;;;;;5013098;28;20498;-89
2021/08/23 05:51:03;;;;;;;20.40;12.60;;;17.10;83.90;;;;;;5013393;28;20053;-90
2021/08/23 05:53:30;;;;;;;21.08;12.50;;;17.10;83.90;;;;;;5014089;28;20049;-90
2021/08/23 05:55:57;;;;;;;23.60;13.45;;;17.10;84.00;;;;;;5005705;28;20141;-89
2021/08/23 05:58:24;;;;;;;27.00;13.50;;;17.20;84.00;;;;;;5012284;28;20050;-89
2021/08/23 06:00:50;;;;;;;26.75;12.88;;;17.10;84.00;;;;;;5013012;28;20399;-89
2021/08/23 06:03:17;;;;;;;22.67;12.60;;;17.10;84.00;;;;;;5013376;28;20080;-90
2021/08/23 06:05:44;;;;;;;19.13;12.18;;;17.20;84.10;;;;;;5012165;28;20466;-89
2021/08/23 06:08:11;;;;;;;19.70;10.77;;;17.20;84.10;;;;;;5013653;28;20050;-90
2021/08/23 06:10:38;;;;;;;18.98;11.60;;;17.20;84.10;;;;;;5012887;28;20085;-90
2021/08/23 06:13:05;;;;;;;22.40;11.10;;;17.20;84.20;;;;;;5013108;28;20042;-90
2021/08/23 06:15:32;;;;;;;16.55;10.48;;;17.20;84.20;;;;;;5011712;28;20058;-89
2021/08/23 06:17:59;;;;;;;25.88;10.07;;;17.20;84.30;;;;;;5011855;28;20061;-93
2021/08/23 06:20:26;;;;;;;21.98;9.75;;;17.20;84.30;;;;;;5013435;28;20518;-90
2021/08/23 06:22:53;;;;;;;18.30;10.18;;;17.30;84.30;;;;;;5044935;28;20049;-91
2021/08/23 06:25:23;;;;;;;19.23;9.23;;;17.30;84.30;;;;;;5011782;28;20092;-91
2021/08/23 06:27:50;;;;;;;12.65;7.75;;;17.30;84.30;;;;;;5012824;28;20049;-90
2021/08/23 06:30:18;;;;;;;16.02;8.65;;;17.30;84.30;;;;;;5012639;28;20050;-91
2021/08/23 06:32:44;;;;;;;16.95;8.05;;;17.30;84.30;;;;;;5012907;28;20046;-89
2021/08/23 06:35:11;;;;;;;15.48;7.45;;;17.30;84.30;;;;;;5011644;28;20100;-89
2021/08/23 06:37:41;;;;;;;17.52;7.20;;;17.30;84.30;;;;;;5011437;28;20048;-90
2021/08/23 06:40:08;;;;;;;20.20;7.07;;;17.30;84.30;;;;;;5040423;28;20050;-90
2021/08/23 06:42:39;;;;;;;19.23;7.75;;;17.30;84.30;;;;;;5000756;28;20045;-89
2021/08/23 06:45:07;;;;;;;19.65;7.57;;;17.40;84.30;;;;;;5010327;28;20049;-87
2021/08/23 06:47:34;;;;;;;19.83;7.50;;;17.40;84.30;;;;;;5010248;28;20065;-89
2021/08/23 06:50:02;;;;;;;15.73;7.32;;;17.40;84.20;;;;;;5009306;28;20053;-90
2021/08/23 06:52:29;;;;;;;14.57;6.97;;;17.40;84.20;;;;;;5005148;28;20046;-91
2021/08/23 06:54:56;;;;;;;21.88;7.50;;;17.40;84.30;;;;;;5002909;28;20096;-89
2021/08/23 06:57:23;;;;;;;15.10;7.55;;;17.40;84.30;;;;;;5011546;28;20042;-89
2021/08/23 06:59:50;;;;;;;16.10;7.35;;;17.40;84.30;;;;;;5010350;28;20519;-89
2021/08/23 07:02:17;;;;;;;15.35;6.78;;;17.40;84.30;;;;;;5010360;28;20092;-89
2021/08/23 07:04:48;;;;;;;19.27;7.97;;;17.40;84.30;;;;;;5011781;28;20057;-91
2021/08/23 07:07:18;;;;;;;21.40;7.68;;;17.40;84.30;;;;;;5011978;28;20054;-91
2021/08/23 07:09:45;;;;;;;13.65;6.82;;;17.40;84.40;;;;;;5011250;28;20074;-91
2021/08/23 07:12:12;;;;;;;16.60;6.72;;;17.40;84.30;;;;;;5011126;28;20050;-90
2021/08/23 07:14:40;;;;;;;23.17;7.57;;;17.40;84.40;;;;;;5010879;28;20060;-90
2021/08/23 07:17:08;;;;;;;17.75;7.90;;;17.40;84.40;;;;;;5011221;28;20046;-91
2021/08/23 07:19:35;;;;;;;17.00;6.35;;;17.40;84.50;;;;;;5011944;28;20050;-88
2021/08/23 07:22:20;;;;;;;14.02;5.90;;;17.40;84.40;;;;;;5033892;28;20046;-90
2021/08/23 07:24:47;;;;;;;21.92;6.97;;;17.40;84.50;;;;;;5001891;28;20050;-90
2021/08/23 07:27:15;;;;;;;23.13;8.18;;;17.50;84.50;;;;;;5010321;28;20054;-91
2021/08/23 07:29:42;;;;;;;14.27;6.22;;;17.50;84.50;;;;;;5010681;28;20108;-93
2021/08/23 07:32:09;;;;;;;21.17;7.63;;;17.60;84.60;;;;;;5012301;28;20069;-91
2021/08/23 07:34:36;;;;;;;25.42;7.45;;;17.60;84.50;;;;;;5011608;28;20046;-90
2021/08/23 07:37:03;;;;;;;19.42;6.38;;;17.60;84.50;;;;;;5012037;28;20054;-90
2021/08/23 07:39:30;;;;;;;24.27;7.65;;;17.70;84.50;;;;;;5012202;28;20042;-91
2021/08/23 07:41:57;;;;;;;22.33;7.63;;;17.70;84.50;;;;;;5011635;28;20061;-91
2021/08/23 07:44:24;;;;;;;17.63;7.45;;;17.70;84.40;;;;;;5010327;28;20053;-90
2021/08/23 07:46:51;;;;;;;17.67;6.78;;;17.80;84.50;;;;;;5011490;28;20104;-89
2021/08/23 07:49:18;;;;;;;20.00;7.78;;;17.80;84.40;;;;;;5015402;28;20053;-90
2021/08/23 07:51:45;;;;;;;18.17;6.75;;;17.90;84.40;;;;;;5016558;28;20050;-90
2021/08/23 07:54:15;;;;;;;16.00;6.47;;;17.90;84.40;;;;;;5016218;28;20510;-89
2021/08/23 07:56:42;;;;;;;13.32;7.07;;;17.90;84.30;;;;;;5015330;28;20050;-90
2021/08/23 07:59:09;;;;;;;15.63;6.80;;;17.90;84.20;;;;;;5016151;28;20054;-90
2021/08/23 08:01:36;;;;;;;20.13;7.10;;;17.90;84.20;;;;;;5016332;28;20108;-91
2021/08/23 08:04:03;;;;;;;19.30;7.45;;;17.90;84.10;;;;;;5014921;28;20454;-90
2021/08/23 08:06:30;;;;;;;18.25;6.70;;;17.90;84.10;;;;;;5015232;28;20045;-89
2021/08/23 08:08:57;;;;;;;16.02;6.80;;;18.00;84.00;;;;;;5014791;28;20992;-89
2021/08/23 08:11:24;;;;;;;29.95;9.02;;;18.00;83.70;;;;;;5013968;28;20057;-89
2021/08/23 08:13:51;;;;;;;23.92;7.25;;;18.00;83.60;;;;;;5036894;28;20043;-91
2021/08/23 08:16:19;;;;;;;20.15;7.07;;;18.00;83.60;;;;;;5007297;28;20056;-89
2021/08/23 08:18:46;;;;;;;19.58;6.90;;;18.10;83.60;;;;;;5013877;28;20490;-89
2021/08/23 08:21:13;;;;;;;23.25;7.93;;;18.10;83.60;;;;;;5014865;28;20058;-91
2021/08/23 08:23:40;;;;;;;23.90;7.78;;;18.10;83.30;;;;;;5014149;28;20054;-90
2021/08/23 08:26:07;;;;;;;20.17;6.50;;;18.10;83.30;;;;;;5014094;28;20518;-89
2021/08/23 08:28:34;;;;;;;21.92;7.07;;;18.20;83.20;;;;;;5014326;28;20054;-88
2021/08/23 08:31:01;;;;;;;16.27;6.85;;;18.20;83.20;;;;;;5015478;28;20132;-91
2021/08/23 08:33:28;;;;;;;19.25;6.75;;;18.20;83.30;;;;;;5014120;28;20077;-91
2021/08/23 08:35:58;;;;;;;15.85;6.43;;;18.20;83.20;;;;;;5014381;28;20392;-93
2021/08/23 08:38:25;;;;;;;15.50;6.57;;;18.20;83.10;;;;;;5014661;28;20506;-93
2021/08/23 08:40:58;;;;;;;13.82;6.28;;;18.30;82.90;;;;;;5013715;28;20049;-91
2021/08/23 08:43:26;;;;;;;16.35;6.30;;;18.30;82.80;;;;;;5014334;28;20065;-90
2021/08/23 08:45:53;;;;;;;14.98;5.90;;;18.40;82.70;;;;;;5011477;28;20053;-88
2021/08/23 08:48:21;;;;;;;20.73;6.30;;;18.40;82.60;;;;;;5014235;28;20392;-89
2021/08/23 08:50:50;;;;;;;16.20;5.75;;;18.40;82.60;;;;;;5014056;28;20054;-92
2021/08/23 08:53:18;;;;;;;13.88;6.30;;;18.40;82.50;;;;;;5014559;28;20046;-87
2021/08/23 08:55:45;;;;;;;17.63;6.03;;;18.40;82.40;;;;;;5013446;28;20116;-87
2021/08/23 08:58:12;;;;;;;10.75;5.22;;;18.50;82.30;;;;;;5013429;28;20054;-88
2021/08/23 09:00:41;;;;;;;15.75;5.38;;;18.50;82.20;;;;;;5013970;28;20062;-89
2021/08/23 09:03:09;;;;;;;18.20;6.72;;;18.50;82.10;;;;;;4997605;28;20132;-88
2021/08/23 09:05:37;;;;;;;16.50;5.40;;;18.50;82.20;;;;;;5013277;28;20052;-91
2021/08/23 09:08:05;;;;;;;22.00;6.93;;;18.50;82.30;;;;;;5014174;28;20050;-88
2021/08/23 09:10:40;;;;;;;14.80;6.30;;;18.60;82.30;;;;;;5012385;28;20521;-88
2021/08/23 09:13:12;;;;;;;18.20;6.13;;;18.60;82.40;;;;;;5014565;28;20050;-88
2021/08/23 09:15:57;;;;;;;15.98;5.95;;;18.70;82.30;;;;;;5014511;28;20073;-88
2021/08/23 09:18:27;;;;;;;14.85;5.95;;;18.70;82.00;;;;;;5000388;28;20425;-89
2021/08/23 09:21:08;;;;;;;17.83;5.97;;;18.80;81.70;;;;;;5012379;28;20050;-88
2021/08/23 09:23:41;;;;;;;18.42;5.40;;;18.80;81.40;;;;;;5008727;28;20053;-88
2021/08/23 09:26:09;;;;;;;13.52;5.63;;;18.80;81.20;;;;;;5011745;28;20050;-91
2021/08/23 09:28:37;;;;;;;10.93;5.05;;;18.80;81.10;;;;;;5037824;28;20073;-88
2021/08/23 09:31:04;;;;;;;13.63;5.68;;;18.80;80.90;;;;;;5005432;28;20418;-87
2021/08/23 09:33:44;;;;;;;12.82;5.68;;;18.90;80.90;;;;;;5013384;28;20041;-91
2021/08/23 09:36:17;;;;;;;9.98;5.80;;;18.90;80.80;;;;;;5013406;28;20514;-88
2021/08/23 09:38:44;;;;;;;11.07;6.50;;;18.90;80.50;;;;;;5012065;28;20046;-85
2021/08/23 09:41:11;;;;;;;10.15;5.50;;;18.90;80.50;;;;;;5012183;28;20049;-89
2021/08/23 09:43:38;;;;;;;20.13;5.05;;;18.90;80.40;;;;;;5012198;28;20065;-89
2021/08/23 09:46:12;;;;;;;11.73;5.68;;;18.90;80.30;;;;;;5010773;28;20049;-89
2021/08/23 09:48:52;;;;;;;9.50;5.47;;;18.90;80.10;;;;;;5044539;28;20038;-90
2021/08/23 09:51:48;;;;;;;10.55;5.80;;;18.90;79.90;;;;;;5000112;28;20054;-90
2021/08/23 09:54:18;;;;;;;14.05;5.70;;;19.00;79.70;;;;;;5002778;28;20073;-90
2021/08/23 09:56:48;;;;;;;10.43;5.50;;;19.00;79.60;;;;;;5012721;28;20100;-85
2021/08/23 09:59:19;;;;;;;14.70;5.47;;;19.00;79.60;;;;;;5013021;28;20062;-88
2021/08/23 10:01:48;;;;;;;15.35;5.65;;;18.90;79.40;;;;;;5012860;28;20061;-87
2021/08/23 10:04:17;;;;;;;10.68;5.57;;;19.00;79.40;;;;;;5012572;28;20064;-90
2021/08/23 10:06:47;;;;;;;13.85;5.95;;;19.00;79.50;;;;;;5012407;28;20053;-89
2021/08/23 10:09:23;;;;;;;13.73;5.65;;;18.90;79.60;;;;;;5044423;28;20469;-89
2021/08/23 10:11:52;;;;;;;12.48;5.85;;;19.00;79.60;;;;;;5012525;28;20062;-87
2021/08/23 10:14:19;;;;;;;13.45;5.68;;;19.00;79.60;;;;;;5012133;28;20064;-88
2021/08/23 10:16:47;;;;;;;12.00;5.47;;;19.00;79.70;;;;;;5012597;28;20112;-89
2021/08/23 10:19:14;;;;;;;11.50;4.70;;;19.00;79.70;;;;;;5012613;28;20477;-89
2021/08/23 10:21:51;;;;;;;10.50;5.18;;;19.10;79.60;;;;;;5014081;28;20081;-90
2021/08/23 10:24:25;;;;;;;10.98;5.20;;;19.10;79.40;;;;;;5013688;28;20049;-88
2021/08/23 10:26:53;;;;;;;9.25;5.28;;;19.10;79.30;;;;;;5013394;28;20111;-86
2021/08/23 10:29:21;;;;;;;11.05;5.75;;;19.20;79.30;;;;;;5013628;28;20050;-88
2021/08/23 10:31:49;;;;;;;13.73;5.45;;;19.30;79.30;;;;;;5012144;28;20050;-87
2021/08/23 10:34:18;;;;;;;9.70;5.22;;;19.30;79.50;;;;;;5013250;28;20053;-86
2021/08/23 10:36:48;;;;;;;10.43;5.35;;;19.40;79.50;;;;;;5013208;28;20050;-88
2021/08/23 10:39:21;;;;;;;11.45;6.00;;;19.50;79.50;;;;;;5011704;28;20053;-86
2021/08/23 10:41:52;;;;;;;8.20;5.03;;;19.60;79.50;;;;;;5013051;28;20526;-89
2021/08/23 10:44:31;;;;;;;12.02;5.22;;;19.80;79.40;;;;;;5006944;28;20050;-87
2021/08/23 10:47:09;;;;;;;12.13;5.45;;;19.90;78.90;;;;;;5012993;28;20046;-87
2021/08/23 10:49:44;;;;;;;14.55;5.53;;;20.00;78.10;;;;;;5012089;28;20050;-87
2021/08/23 10:52:14;;;;;;;8.70;5.55;;;20.10;77.20;;;;;;5004585;28;20054;-89
2021/08/23 10:54:43;;;;;;;9.98;5.10;;;20.10;77.00;;;;;;4993850;28;20101;-88
2021/08/23 10:57:29;;;;;;;10.35;5.00;;;20.20;76.80;;;;;;4997435;28;20054;-87
2021/08/23 11:00:28;;;;;;;10.43;4.22;;;20.30;76.70;;;;;;5012815;28;20054;-89
2021/08/23 11:02:59;;;;;;;9.90;4.75;;;20.40;76.30;;;;;;5012401;28;20498;-88
2021/08/23 11:05:26;;;;;;;8.30;4.88;;;20.50;76.10;;;;;;5013152;28;20470;-87
2021/08/23 11:08:03;;;;;;;8.68;4.93;;;20.60;75.90;;;;;;5044693;28;20061;-91
2021/08/23 11:10:32;;;;;;;7.72;4.50;;;20.70;74.90;;;;;;5011010;28;20533;-89
2021/08/23 11:13:19;;;;;;;11.85;4.68;;;20.70;74.50;;;;;;5012416;28;20049;-93
2021/08/23 11:15:46;;;;;;;8.18;4.65;;;20.80;74.20;;;;;;5044675;28;20061;-89
2021/08/23 11:18:16;;;;;;;8.25;4.80;;;20.90;73.80;;;;;;5012543;28;20100;-88
2021/08/23 11:20:51;;;;;;;13.88;4.22;;;20.90;73.90;;;;;;5012577;28;20407;-87
2021/08/23 11:23:25;;;;;;;9.05;4.20;;;20.90;74.10;;;;;;5013125;28;20491;-88
2021/08/23 11:25:54;;;;;;;;;;;20.90;74.00;;;;;;5016372;28;20556;-88
2021/08/23 11:28:27;;;;;;;6.45;4.28;;;20.90;73.80;;;;;;5015396;28;19921;-89
2021/08/23 11:31:01;;;;;;;7.97;4.63;;;20.90;73.50;;;;;;5015533;28;20046;-89
2021/08/23 11:33:33;;;;;;;10.40;4.68;;;21.00;73.90;;;;;;5015458;28;20053;-88
2021/08/23 11:36:02;;;;;;;10.23;4.53;;;21.10;73.80;;;;;;5016368;28;20730;-89
2021/08/23 11:38:34;;;;;;;7.00;4.28;;;21.10;73.80;;;;;;5016858;28;20116;-88
2021/08/23 11:41:04;;;;;;;6.93;4.20;;;21.10;73.70;;;;;;5016505;28;20652;-90
2021/08/23 11:43:33;;;;;;;8.15;3.80;;;21.20;73.50;;;;;;5015274;28;20057;-89
2021/08/23 11:46:03;;;;;;;7.10;4.10;;;21.10;73.40;;;;;;5016438;28;20129;-87
2021/08/23 11:48:31;;;;;;;6.80;3.70;;;21.20;73.20;;;;;;5014802;28;20058;-89
2021/08/23 11:50:58;;;;;;;8.63;3.75;;;21.10;73.00;;;;;;5016426;28;20088;-86
2021/08/23 11:53:29;;;;;;;10.25;4.00;;;21.10;72.80;;;;;;5016312;28;20669;-90
2021/08/23 11:56:07;;;;;;;8.23;3.88;;;21.10;72.70;;;;;;4996527;28;20046;-89
2021/08/23 11:58:40;;;;;;;6.68;3.47;;;21.10;72.40;;;;;;5010698;28;20099;-88
2021/08/23 12:01:11;;;;;;;8.07;4.28;;;21.10;72.30;;;;;;5015936;28;20100;-89
2021/08/23 12:03:39;;;;;;;7.03;3.60;;;21.10;72.00;;;;;;5013992;28;20136;-87
2021/08/23 12:06:08;;;;;;;7.55;4.03;;;21.20;71.90;;;;;;5015675;28;20045;-87
2021/08/23 12:08:38;;;;;;;12.48;4.00;;;21.20;71.90;;;;;;4996459;28;20058;-91
2021/08/23 12:11:13;;;;;;;9.52;3.58;;;21.20;72.20;;;;;;5014504;28;20054;-89
2021/08/23 12:13:45;;;;;;;8.93;4.00;;;21.30;72.00;;;;;;5014860;28;20046;-90
2021/08/23 12:16:14;;;;;;;6.32;3.58;;;21.30;71.60;;;;;;5015100;28;20053;-91
2021/08/23 12:18:48;;;;;;;9.05;3.67;;;21.30;71.30;;;;;;5055090;28;20060;-90
2021/08/23 12:21:26;;;;;;;6.45;3.58;;;21.30;71.20;;;;;;5030858;28;20054;-92
2021/08/23 12:23:58;;;;;;;10.55;4.20;;;21.30;71.00;;;;;;5014764;28;20049;-90
2021/08/23 12:26:39;;;;;;;7.93;4.03;;;21.40;71.10;;;;;;5014869;28;20057;-91
2021/08/23 12:29:16;;;;;;;8.13;3.85;;;21.40;71.10;;;;;;5014583;28;20061;-90
2021/08/23 12:31:53;;;;;;;6.97;3.65;;;21.40;71.10;;;;;;5006804;28;20088;-94
2021/08/23 12:34:31;;;;;;;10.38;3.53;;;21.40;70.90;;;;;;4999488;28;20050;-92
2021/08/23 12:37:01;;;;;;;11.52;4.07;;;21.40;70.60;;;;;;5014894;28;20050;-89
2021/08/23 12:39:29;;;;;;;7.53;4.00;;;21.40;70.40;;;;;;5014709;28;20053;-93
2021/08/23 12:42:02;;;;;;;7.22;3.70;;;21.40;69.90;;;;;;4997924;28;20510;-89